Aviation Digital Data Service (ADDS)

Output produced by METARs form (1341 UTC 23 January 2019)
found at http://www.aviationweather.gov/metar/data/
 
METAR text: KTUL 231317Z 34009KT 10SM BKN025 M06/M09 A3013 RMK AO2 T10561094
Conditions at: KTUL (TULSA , OK, US) observed 1317 UTC 23 January 2019
Temperature: -5.6°C (22°F)
Dewpoint: -9.4°C (15°F) [RH = 75%]
Pressure (altimeter): 30.13 inches Hg (1020.4 mb)
Winds: from the NNW (340 degrees) at 10 MPH (9 knots; 4.6 m/s)
Visibility: 10 or more miles (16+ km)
Ceiling: 2500 feet AGL
Clouds: broken clouds at 2500 feet AGL
Weather: no significant weather observed at this time

METAR text: KTUL 231253Z 34008KT 10SM SCT023 M06/M09 A3013 RMK AO2 SLP209 T10561094
Conditions at: KTUL (TULSA , OK, US) observed 1253 UTC 23 January 2019
Temperature: -5.6°C (22°F)
Dewpoint: -9.4°C (15°F) [RH = 75%]
Pressure (altimeter): 30.13 inches Hg (1020.4 mb)
[Sea-level pressure: 1020.9 mb]
Winds: from the NNW (340 degrees) at 9 MPH (8 knots; 4.1 m/s)
Visibility: 10 or more miles (16+ km)
Ceiling: at least 12,000 feet AGL
Clouds: scattered clouds at 2300 feet AGL
Weather: no significant weather observed at this time

METAR text: KTUL 231249Z 34010KT 10SM SCT023 M06/M09 A3013 RMK AO2
Conditions at: KTUL (TULSA , OK, US) observed 1249 UTC 23 January 2019
Temperature: -6.0°C (21°F)
Dewpoint: -9.0°C (16°F) [RH = 79%]
Pressure (altimeter): 30.13 inches Hg (1020.4 mb)
Winds: from the NNW (340 degrees) at 12 MPH (10 knots; 5.1 m/s)
Visibility: 10 or more miles (16+ km)
Ceiling: at least 12,000 feet AGL
Clouds: scattered clouds at 2300 feet AGL
Weather: no significant weather observed at this time

METAR text: KTUL 231153Z 31013KT 10SM OVC024 M04/M09 A3011 RMK AO2 SLP202 70005 T10441089 11022 21044 53010
Conditions at: KTUL (TULSA , OK, US) observed 1153 UTC 23 January 2019
Temperature: -4.4°C (24°F)
Dewpoint: -8.9°C (16°F) [RH = 71%]
Pressure (altimeter): 30.11 inches Hg (1019.7 mb)
[Sea-level pressure: 1020.2 mb]
Winds: from the NW (310 degrees) at 15 MPH (13 knots; 6.7 m/s)
Visibility: 10 or more miles (16+ km)
Ceiling: 2400 feet AGL
Clouds: overcast cloud deck at 2400 feet AGL
Weather: no significant weather observed at this time

METAR text: KTUL 231053Z 31010KT 10SM OVC025 M04/M09 A3009 RMK AO2 SLP195 T10391089
Conditions at: KTUL (TULSA , OK, US) observed 1053 UTC 23 January 2019
Temperature: -3.9°C (25°F)
Dewpoint: -8.9°C (16°F) [RH = 68%]
Pressure (altimeter): 30.09 inches Hg (1019.0 mb)
[Sea-level pressure: 1019.5 mb]
Winds: from the NW (310 degrees) at 12 MPH (10 knots; 5.1 m/s)
Visibility: 10 or more miles (16+ km)
Ceiling: 2500 feet AGL
Clouds: overcast cloud deck at 2500 feet AGL
Weather: no significant weather observed at this time

METAR text: KTUL 230953Z 32016G21KT 10SM OVC022 M04/M08 A3007 RMK AO2 PRESFR SLP189 T10391083
Conditions at: KTUL (TULSA , OK, US) observed 0953 UTC 23 January 2019
Temperature: -3.9°C (25°F)
Dewpoint: -8.3°C (17°F) [RH = 71%]
Pressure (altimeter): 30.07 inches Hg (1018.4 mb)
[Sea-level pressure: 1018.9 mb]
Winds: from the NW (320 degrees) at 18 MPH (16 knots; 8.2 m/s)
gusting to 24 MPH (21 knots; 10.8 m/s)
Visibility: 10 or more miles (16+ km)
Ceiling: 2200 feet AGL
Clouds: overcast cloud deck at 2200 feet AGL
Weather: no significant weather observed at this time

METAR text: KTUL 230853Z 33011KT 10SM OVC022 M03/M08 A3008 RMK AO2 SLP189 T10331078 51017
Conditions at: KTUL (TULSA , OK, US) observed 0853 UTC 23 January 2019
Temperature: -3.3°C (26°F)
Dewpoint: -7.8°C (18°F) [RH = 71%]
Pressure (altimeter): 30.08 inches Hg (1018.7 mb)
[Sea-level pressure: 1018.9 mb]
Winds: from the NNW (330 degrees) at 13 MPH (11 knots; 5.7 m/s)
Visibility: 10 or more miles (16+ km)
Ceiling: 2200 feet AGL
Clouds: overcast cloud deck at 2200 feet AGL
Weather: no significant weather observed at this time

METAR text: KTUL 230753Z 33013KT 10SM OVC019 M03/M07 A3006 RMK AO2 SLP182 T10331072
Conditions at: KTUL (TULSA , OK, US) observed 0753 UTC 23 January 2019
Temperature: -3.3°C (26°F)
Dewpoint: -7.2°C (19°F) [RH = 74%]
Pressure (altimeter): 30.06 inches Hg (1018.0 mb)
[Sea-level pressure: 1018.2 mb]
Winds: from the NNW (330 degrees) at 15 MPH (13 knots; 6.7 m/s)
Visibility: 10 or more miles (16+ km)
Ceiling: 1900 feet AGL
Clouds: overcast cloud deck at 1900 feet AGL
Weather: no significant weather observed at this time

METAR text: KTUL 230728Z 33015KT 10SM BKN021 OVC038 M03/M07 A3003 RMK AO2 T10331067
Conditions at: KTUL (TULSA , OK, US) observed 0728 UTC 23 January 2019
Temperature: -3.3°C (26°F)
Dewpoint: -6.7°C (20°F) [RH = 77%]
Pressure (altimeter): 30.03 inches Hg (1017.0 mb)
Winds: from the NNW (330 degrees) at 17 MPH (15 knots; 7.7 m/s)
Visibility: 10 or more miles (16+ km)
Ceiling: 2100 feet AGL
Clouds: broken clouds at 2100 feet AGL
overcast cloud deck at 3800 feet AGL
Weather: no significant weather observed at this time

METAR text: KTUL 230653Z 33012KT 10SM FEW023 OVC038 M03/M07 A3007 RMK AO2 SLP183 T10281072
Conditions at: KTUL (TULSA , OK, US) observed 0653 UTC 23 January 2019
Temperature: -2.8°C (27°F)
Dewpoint: -7.2°C (19°F) [RH = 72%]
Pressure (altimeter): 30.07 inches Hg (1018.4 mb)
[Sea-level pressure: 1018.3 mb]
Winds: from the NNW (330 degrees) at 14 MPH (12 knots; 6.2 m/s)
Visibility: 10 or more miles (16+ km)
Ceiling: 3800 feet AGL
Clouds: few clouds at 2300 feet AGL
overcast cloud deck at 3800 feet AGL
Weather: no significant weather observed at this time

METAR text: KTUL 230644Z 32017KT 10SM SCT023 OVC037 M03/M07 A3007 RMK AO2 T10281072
Conditions at: KTUL (TULSA , OK, US) observed 0644 UTC 23 January 2019
Temperature: -2.8°C (27°F)
Dewpoint: -7.2°C (19°F) [RH = 72%]
Pressure (altimeter): 30.07 inches Hg (1018.4 mb)
Winds: from the NW (320 degrees) at 20 MPH (17 knots; 8.7 m/s)
Visibility: 10 or more miles (16+ km)
Ceiling: 3700 feet AGL
Clouds: scattered clouds at 2300 feet AGL
overcast cloud deck at 3700 feet AGL
Weather: no significant weather observed at this time

METAR text: KTUL 230553Z 31016KT 10SM BKN020 OVC036 M02/M06 A3003 RMK AO2 PK WND 31026/0502 PRESFR SLP172 60000 T10221061 10017 21022 401221022 50009
Conditions at: KTUL (TULSA , OK, US) observed 0553 UTC 23 January 2019
Temperature: -2.2°C (28°F)
Dewpoint: -6.1°C (21°F) [RH = 75%]
Pressure (altimeter): 30.03 inches Hg (1017.0 mb)
[Sea-level pressure: 1017.2 mb]
Winds: from the NW (310 degrees) at 18 MPH (16 knots; 8.2 m/s)
Visibility: 10 or more miles (16+ km)
Ceiling: 2000 feet AGL
Clouds: broken clouds at 2000 feet AGL
overcast cloud deck at 3600 feet AGL
Weather: no significant weather observed at this time

METAR text: KTUL 230453Z 30017G22KT 10SM OVC016 M02/M05 A3004 RMK AO2 PRESRR SLP174 T10171050
Conditions at: KTUL (TULSA , OK, US) observed 0453 UTC 23 January 2019
Temperature: -1.7°C (29°F)
Dewpoint: -5.0°C (23°F) [RH = 78%]
Pressure (altimeter): 30.04 inches Hg (1017.4 mb)
[Sea-level pressure: 1017.4 mb]
Winds: from the WNW (300 degrees) at 20 MPH (17 knots; 8.7 m/s)
gusting to 25 MPH (22 knots; 11.3 m/s)
Visibility: 10 or more miles (16+ km)
Ceiling: 1600 feet AGL
Clouds: overcast cloud deck at 1600 feet AGL
Weather: no significant weather observed at this time

METAR text: KTUL 230448Z 30016G23KT 10SM OVC016 M01/M04 A3003 RMK AO2
Conditions at: KTUL (TULSA , OK, US) observed 0448 UTC 23 January 2019
Temperature: -1.0°C (30°F)
Dewpoint: -4.0°C (25°F) [RH = 80%]
Pressure (altimeter): 30.03 inches Hg (1017.0 mb)
Winds: from the WNW (300 degrees) at 18 MPH (16 knots; 8.2 m/s)
gusting to 26 MPH (23 knots; 11.8 m/s)
Visibility: 10 or more miles (16+ km)
Ceiling: 1600 feet AGL
Clouds: overcast cloud deck at 1600 feet AGL
Weather: no significant weather observed at this time

METAR text: KTUL 230439Z 31018G23KT 10SM OVC014 M01/M04 A3002 RMK AO2 T10111039
Conditions at: KTUL (TULSA , OK, US) observed 0439 UTC 23 January 2019
Temperature: -1.1°C (30°F)
Dewpoint: -3.9°C (25°F) [RH = 81%]
Pressure (altimeter): 30.02 inches Hg (1016.7 mb)
Winds: from the NW (310 degrees) at 21 MPH (18 knots; 9.3 m/s)
gusting to 26 MPH (23 knots; 11.8 m/s)
Visibility: 10 or more miles (16+ km)
Ceiling: 1400 feet AGL
Clouds: overcast cloud deck at 1400 feet AGL
Weather: no significant weather observed at this time

METAR text: KTUL 230353Z 32018G24KT 10SM FEW013 OVC019 M01/M04 A3001 RMK AO2 PK WND 32027/0338 UPB23E33 SLP162 P0000 T10111039
Conditions at: KTUL (TULSA , OK, US) observed 0353 UTC 23 January 2019
Temperature: -1.1°C (30°F)
Dewpoint: -3.9°C (25°F) [RH = 81%]
Pressure (altimeter): 30.01 inches Hg (1016.3 mb)
[Sea-level pressure: 1016.2 mb]
Winds: from the NW (320 degrees) at 21 MPH (18 knots; 9.3 m/s)
gusting to 28 MPH (24 knots; 12.3 m/s)
Visibility: 10 or more miles (16+ km)
Ceiling: 1900 feet AGL
Clouds: few clouds at 1300 feet AGL
overcast cloud deck at 1900 feet AGL
Weather: no significant weather observed at this time

METAR text: KTUL 230253Z 31019KT 10SM OVC013 M01/M03 A3000 RMK AO2 PK WND 29027/0203 SLP160 60000 T10061028 51033
Conditions at: KTUL (TULSA , OK, US) observed 0253 UTC 23 January 2019
Temperature: -0.6°C (31°F)
Dewpoint: -2.8°C (27°F) [RH = 85%]
Pressure (altimeter): 30.00 inches Hg (1016.0 mb)
[Sea-level pressure: 1016.0 mb]
Winds: from the NW (310 degrees) at 22 MPH (19 knots; 9.8 m/s)
Visibility: 10 or more miles (16+ km)
Ceiling: 1300 feet AGL
Clouds: overcast cloud deck at 1300 feet AGL
Weather: no significant weather observed at this time

METAR text: KTUL 230153Z 30015G26KT 10SM BKN010 OVC016 00/M02 A2999 RMK AO2 PK WND 31028/0142 DZE28 PRESRR SLP157 P0000 T00001017
Conditions at: KTUL (TULSA , OK, US) observed 0153 UTC 23 January 2019
Temperature: 0.0°C (32°F)
Dewpoint: -1.7°C (29°F) [RH = 88%]
Pressure (altimeter): 29.99 inches Hg (1015.7 mb)
[Sea-level pressure: 1015.7 mb]
Winds: from the WNW (300 degrees) at 17 MPH (15 knots; 7.7 m/s)
gusting to 30 MPH (26 knots; 13.4 m/s)
Visibility: 10 or more miles (16+ km)
Ceiling: 1000 feet AGL
Clouds: broken clouds at 1000 feet AGL
overcast cloud deck at 1600 feet AGL
Weather: no significant weather observed at this time

METAR text: KTUL 230114Z 30016KT 10SM -DZ OVC010 01/M01 A2994 RMK AO2 CIG 006V012 P0000 T00061006
Conditions at: KTUL (TULSA , OK, US) observed 0114 UTC 23 January 2019
Temperature: 0.6°C (33°F)
Dewpoint: -0.6°C (31°F) [RH = 92%]
Pressure (altimeter): 29.94 inches Hg (1014.0 mb)
Winds: from the WNW (300 degrees) at 18 MPH (16 knots; 8.2 m/s)
Visibility: 10 or more miles (16+ km)
Ceiling: 1000 feet AGL
Clouds: overcast cloud deck at 1000 feet AGL
Weather: -DZ  (light drizzle)

METAR text: KTUL 230102Z 31014KT 6SM -DZ BR BKN008 OVC013 01/00 A2994 RMK AO2 CIG 006V010 P0000 T00110000
Conditions at: KTUL (TULSA , OK, US) observed 0102 UTC 23 January 2019
Temperature: 1.1°C (34°F)
Dewpoint: 0.0°C (32°F) [RH = 92%]
Pressure (altimeter): 29.94 inches Hg (1014.0 mb)
Winds: from the NW (310 degrees) at 16 MPH (14 knots; 7.2 m/s)
Visibility: 6 miles (10 km)
Ceiling: 800 feet AGL
Clouds: broken clouds at 800 feet AGL
overcast cloud deck at 1300 feet AGL
Weather: -DZ BR  (light drizzle, mist)

METAR text: KTUL 230053Z 30014KT 7SM -DZ BKN010 OVC013 01/00 A2994 RMK AO2 CIG 006V013 SLP139 P0000 T00110000
Conditions at: KTUL (TULSA , OK, US) observed 0053 UTC 23 January 2019
Temperature: 1.1°C (34°F)
Dewpoint: 0.0°C (32°F) [RH = 92%]
Pressure (altimeter): 29.94 inches Hg (1014.0 mb)
[Sea-level pressure: 1013.9 mb]
Winds: from the WNW (300 degrees) at 16 MPH (14 knots; 7.2 m/s)
Visibility: 7 miles (11 km)
Ceiling: 1000 feet AGL
Clouds: broken clouds at 1000 feet AGL
overcast cloud deck at 1300 feet AGL
Weather: -DZ  (light drizzle)

METAR text: KTUL 230002Z 30013G24KT 8SM -DZ BKN010 OVC014 02/01 A2990 RMK AO2 CIG 006V013 P0000 T00170006
Conditions at: KTUL (TULSA , OK, US) observed 0002 UTC 23 January 2019
Temperature: 1.7°C (35°F)
Dewpoint: 0.6°C (33°F) [RH = 92%]
Pressure (altimeter): 29.90 inches Hg (1012.6 mb)
Winds: from the WNW (300 degrees) at 15 MPH (13 knots; 6.7 m/s)
gusting to 28 MPH (24 knots; 12.3 m/s)
Visibility: 8 miles (13 km)
Ceiling: 1000 feet AGL
Clouds: broken clouds at 1000 feet AGL
overcast cloud deck at 1400 feet AGL
Weather: -DZ  (light drizzle)

METAR text: KTUL 222353Z 30015G20KT 6SM -DZ BR OVC008 02/01 A2990 RMK AO2 RAE42DZB49 CIG 006V011 SLP126 P0002 60005 T00170006 10122 20017 51047
Conditions at: KTUL (TULSA , OK, US) observed 2353 UTC 22 January 2019
Temperature: 1.7°C (35°F)
Dewpoint: 0.6°C (33°F) [RH = 92%]
Pressure (altimeter): 29.90 inches Hg (1012.6 mb)
[Sea-level pressure: 1012.6 mb]
Winds: from the WNW (300 degrees) at 17 MPH (15 knots; 7.7 m/s)
gusting to 23 MPH (20 knots; 10.3 m/s)
Visibility: 6 miles (10 km)
Ceiling: 800 feet AGL
Clouds: overcast cloud deck at 800 feet AGL
Weather: -DZ BR  (light drizzle, mist)

METAR text: KTUL 222327Z 31013KT 3SM -RA BR BKN009 OVC013 02/01 A2989 RMK AO2 CIG 006V012 P0001 T00170006
Conditions at: KTUL (TULSA , OK, US) observed 2327 UTC 22 January 2019
Temperature: 1.7°C (35°F)
Dewpoint: 0.6°C (33°F) [RH = 92%]
Pressure (altimeter): 29.89 inches Hg (1012.3 mb)
Winds: from the NW (310 degrees) at 15 MPH (13 knots; 6.7 m/s)
Visibility: 3 miles ( 5 km)
Ceiling: 900 feet AGL
Clouds: broken clouds at 900 feet AGL
overcast cloud deck at 1300 feet AGL
Weather: -RA BR  (light rain, mist)

METAR text: KTUL 222311Z 30015KT 2 1/2SM -RA BR OVC008 02/01 A2989 RMK AO2 CIG 006V011 P0001 T00220011
Conditions at: KTUL (TULSA , OK, US) observed 2311 UTC 22 January 2019
Temperature: 2.2°C (36°F)
Dewpoint: 1.1°C (34°F) [RH = 92%]
Pressure (altimeter): 29.89 inches Hg (1012.3 mb)
Winds: from the WNW (300 degrees) at 17 MPH (15 knots; 7.7 m/s)
Visibility: 2.50 miles (4.02 km)
Ceiling: 800 feet AGL
Clouds: overcast cloud deck at 800 feet AGL
Weather: -RA BR  (light rain, mist)

METAR text: KTUL 222253Z 31016KT 3SM -RA BR OVC008 02/01 A2987 RMK AO2 CIG 006V011 SLP115 P0003 T00220011
Conditions at: KTUL (TULSA , OK, US) observed 2253 UTC 22 January 2019
Temperature: 2.2°C (36°F)
Dewpoint: 1.1°C (34°F) [RH = 92%]
Pressure (altimeter): 29.87 inches Hg (1011.6 mb)
[Sea-level pressure: 1011.5 mb]
Winds: from the NW (310 degrees) at 18 MPH (16 knots; 8.2 m/s)
Visibility: 3 miles ( 5 km)
Ceiling: 800 feet AGL
Clouds: overcast cloud deck at 800 feet AGL
Weather: -RA BR  (light rain, mist)

METAR text: KTUL 222241Z 30014KT 3SM -RA BR OVC009 03/02 A2987 RMK AO2 CIG 006V011 P0003 T00280017
Conditions at: KTUL (TULSA , OK, US) observed 2241 UTC 22 January 2019
Temperature: 2.8°C (37°F)
Dewpoint: 1.7°C (35°F) [RH = 92%]
Pressure (altimeter): 29.87 inches Hg (1011.6 mb)
Winds: from the WNW (300 degrees) at 16 MPH (14 knots; 7.2 m/s)
Visibility: 3 miles ( 5 km)
Ceiling: 900 feet AGL
Clouds: overcast cloud deck at 900 feet AGL
Weather: -RA BR  (light rain, mist)

METAR text: KTUL 222230Z 31013G21KT 2 1/2SM -RA BR OVC009 03/02 A2986 RMK AO2 CIG 006V012 P0002 T00280017
Conditions at: KTUL (TULSA , OK, US) observed 2230 UTC 22 January 2019
Temperature: 2.8°C (37°F)
Dewpoint: 1.7°C (35°F) [RH = 92%]
Pressure (altimeter): 29.86 inches Hg (1011.3 mb)
Winds: from the NW (310 degrees) at 15 MPH (13 knots; 6.7 m/s)
gusting to 24 MPH (21 knots; 10.8 m/s)
Visibility: 2.50 miles (4.02 km)
Ceiling: 900 feet AGL
Clouds: overcast cloud deck at 900 feet AGL
Weather: -RA BR  (light rain, mist)

METAR text: KTUL 222153Z 30018KT 4SM -RA BR BKN008 OVC014 03/02 A2983 RMK AO2 PK WND 28026/2126 WSHFT 2104 CIG 006V012 SLP102 FROPA P0000 T00330022
Conditions at: KTUL (TULSA , OK, US) observed 2153 UTC 22 January 2019
Temperature: 3.3°C (38°F)
Dewpoint: 2.2°C (36°F) [RH = 92%]
Pressure (altimeter): 29.83 inches Hg (1010.2 mb)
[Sea-level pressure: 1010.2 mb]
Winds: from the WNW (300 degrees) at 21 MPH (18 knots; 9.3 m/s)
Visibility: 4 miles ( 6 km)
Ceiling: 800 feet AGL
Clouds: broken clouds at 800 feet AGL
overcast cloud deck at 1400 feet AGL
Weather: -RA BR  (light rain, mist)

METAR text: KTUL 222120Z 29018KT 3SM -RA BR OVC008 06/05 A2980 RMK AO2 WSHFT 2104 CIG 005V010 PRESRR FROPA P0000 T00610050
Conditions at: KTUL (TULSA , OK, US) observed 2120 UTC 22 January 2019
Temperature: 6.1°C (43°F)
Dewpoint: 5.0°C (41°F) [RH = 93%]
Pressure (altimeter): 29.80 inches Hg (1009.2 mb)
Winds: from the WNW (290 degrees) at 21 MPH (18 knots; 9.3 m/s)
Visibility: 3 miles ( 5 km)
Ceiling: 800 feet AGL
Clouds: overcast cloud deck at 800 feet AGL
Weather: -RA BR  (light rain, mist)

METAR text: KTUL 222112Z 29019G22KT 4SM -RA BR OVC008 08/07 A2979 RMK AO2 CIG 005V010 PRESRR FROPA P0000 T00830067
Conditions at: KTUL (TULSA , OK, US) observed 2112 UTC 22 January 2019
Temperature: 8.3°C (47°F)
Dewpoint: 6.7°C (44°F) [RH = 90%]
Pressure (altimeter): 29.79 inches Hg (1008.9 mb)
Winds: from the WNW (290 degrees) at 22 MPH (19 knots; 9.8 m/s)
gusting to 25 MPH (22 knots; 11.3 m/s)
Visibility: 4 miles ( 6 km)
Ceiling: 800 feet AGL
Clouds: overcast cloud deck at 800 feet AGL
Weather: -RA BR  (light rain, mist)

METAR text: KTUL 222107Z 29017KT 4SM -RA BR OVC010 11/09 A2978 RMK AO2 CIG 005V010 PRESRR FROPA P0000 T01060089
Conditions at: KTUL (TULSA , OK, US) observed 2107 UTC 22 January 2019
Temperature: 10.6°C (51°F)
Dewpoint: 8.9°C (48°F) [RH = 89%]
Pressure (altimeter): 29.78 inches Hg (1008.5 mb)
Winds: from the WNW (290 degrees) at 20 MPH (17 knots; 8.7 m/s)
Visibility: 4 miles ( 6 km)
Ceiling: 1000 feet AGL
Clouds: overcast cloud deck at 1000 feet AGL
Weather: -RA BR  (light rain, mist)

METAR text: KTUL 222053Z 18014KT 9SM -RA OVC010 12/10 A2976 RMK AO2 DZB01E40RAB40 SLP076 P0000 60000 T01170100 55010
Conditions at: KTUL (TULSA , OK, US) observed 2053 UTC 22 January 2019
Temperature: 11.7°C (53°F)
Dewpoint: 10.0°C (50°F) [RH = 89%]
Pressure (altimeter): 29.76 inches Hg (1007.9 mb)
[Sea-level pressure: 1007.6 mb]
Winds: from the S (180 degrees) at 16 MPH (14 knots; 7.2 m/s)
Visibility: 9 miles (14 km)
Ceiling: 1000 feet AGL
Clouds: overcast cloud deck at 1000 feet AGL
Weather: -RA  (light rain)

METAR text: KTUL 221953Z 17017KT 10SM OVC010 12/09 A2975 RMK AO2 DZB29E40 SLP074 P0000 T01170094
Conditions at: KTUL (TULSA , OK, US) observed 1953 UTC 22 January 2019
Temperature: 11.7°C (53°F)
Dewpoint: 9.4°C (49°F) [RH = 86%]
Pressure (altimeter): 29.75 inches Hg (1007.5 mb)
[Sea-level pressure: 1007.4 mb]
Winds: from the S (170 degrees) at 20 MPH (17 knots; 8.7 m/s)
Visibility: 10 or more miles (16+ km)
Ceiling: 1000 feet AGL
Clouds: overcast cloud deck at 1000 feet AGL
Weather: no significant weather observed at this time

METAR text: KTUL 221853Z 17013G22KT 10SM OVC010 12/09 A2977 RMK AO2 PK WND 16028/1755 SLP079 T01170094
Conditions at: KTUL (TULSA , OK, US) observed 1853 UTC 22 January 2019
Temperature: 11.7°C (53°F)
Dewpoint: 9.4°C (49°F) [RH = 86%]
Pressure (altimeter): 29.77 inches Hg (1008.2 mb)
[Sea-level pressure: 1007.9 mb]
Winds: from the S (170 degrees) at 15 MPH (13 knots; 6.7 m/s)
gusting to 25 MPH (22 knots; 11.3 m/s)
Visibility: 10 or more miles (16+ km)
Ceiling: 1000 feet AGL
Clouds: overcast cloud deck at 1000 feet AGL
Weather: no significant weather observed at this time

METAR text: KTUL 221753Z 17018G27KT 10SM OVC011 12/09 A2979 RMK AO2 PK WND 16027/1746 SLP086 60000 T01220094 10122 20117 58005
Conditions at: KTUL (TULSA , OK, US) observed 1753 UTC 22 January 2019
Temperature: 12.2°C (54°F)
Dewpoint: 9.4°C (49°F) [RH = 83%]
Pressure (altimeter): 29.79 inches Hg (1008.9 mb)
[Sea-level pressure: 1008.6 mb]
Winds: from the S (170 degrees) at 21 MPH (18 knots; 9.3 m/s)
gusting to 31 MPH (27 knots; 13.9 m/s)
Visibility: 10 or more miles (16+ km)
Ceiling: 1100 feet AGL
Clouds: overcast cloud deck at 1100 feet AGL
Weather: no significant weather observed at this time

METAR text: KTUL 221653Z 17015G24KT 10SM OVC012 12/09 A2981 RMK AO2 SLP093 T01170089
Conditions at: KTUL (TULSA , OK, US) observed 1653 UTC 22 January 2019
Temperature: 11.7°C (53°F)
Dewpoint: 8.9°C (48°F) [RH = 83%]
Pressure (altimeter): 29.81 inches Hg (1009.6 mb)
[Sea-level pressure: 1009.3 mb]
Winds: from the S (170 degrees) at 17 MPH (15 knots; 7.7 m/s)
gusting to 28 MPH (24 knots; 12.3 m/s)
Visibility: 10 or more miles (16+ km)
Ceiling: 1200 feet AGL
Clouds: overcast cloud deck at 1200 feet AGL
Weather: no significant weather observed at this time

METAR text: KTUL 221612Z 16012G22KT 10SM OVC014 12/09 A2981 RMK AO2 T01170089
Conditions at: KTUL (TULSA , OK, US) observed 1612 UTC 22 January 2019
Temperature: 11.7°C (53°F)
Dewpoint: 8.9°C (48°F) [RH = 83%]
Pressure (altimeter): 29.81 inches Hg (1009.6 mb)
Winds: from the SSE (160 degrees) at 14 MPH (12 knots; 6.2 m/s)
gusting to 25 MPH (22 knots; 11.3 m/s)
Visibility: 10 or more miles (16+ km)
Ceiling: 1400 feet AGL
Clouds: overcast cloud deck at 1400 feet AGL
Weather: no significant weather observed at this time

METAR text: KTUL 221553Z 16015KT 10SM BKN015 OVC025 12/09 A2981 RMK AO2 SLP092 T01170089
Conditions at: KTUL (TULSA , OK, US) observed 1553 UTC 22 January 2019
Temperature: 11.7°C (53°F)
Dewpoint: 8.9°C (48°F) [RH = 83%]
Pressure (altimeter): 29.81 inches Hg (1009.6 mb)
[Sea-level pressure: 1009.2 mb]
Winds: from the SSE (160 degrees) at 17 MPH (15 knots; 7.7 m/s)
Visibility: 10 or more miles (16+ km)
Ceiling: 1500 feet AGL
Clouds: broken clouds at 1500 feet AGL
overcast cloud deck at 2500 feet AGL
Weather: no significant weather observed at this time

METAR text: KTUL 221453Z 16013G22KT 10SM OVC023 12/08 A2980 RMK AO2 SLP092 60000 T01220078 51007
Conditions at: KTUL (TULSA , OK, US) observed 1453 UTC 22 January 2019
Temperature: 12.2°C (54°F)
Dewpoint: 7.8°C (46°F) [RH = 74%]
Pressure (altimeter): 29.80 inches Hg (1009.2 mb)
[Sea-level pressure: 1009.2 mb]
Winds: from the SSE (160 degrees) at 15 MPH (13 knots; 6.7 m/s)
gusting to 25 MPH (22 knots; 11.3 m/s)
Visibility: 10 or more miles (16+ km)
Ceiling: 2300 feet AGL
Clouds: overcast cloud deck at 2300 feet AGL
Weather: no significant weather observed at this time

METAR text: KTUL 221353Z 16013G23KT 10SM OVC023 12/08 A2979 RMK AO2 DZE16 SLP089 P0000 T01170078
Conditions at: KTUL (TULSA , OK, US) observed 1353 UTC 22 January 2019
Temperature: 11.7°C (53°F)
Dewpoint: 7.8°C (46°F) [RH = 77%]
Pressure (altimeter): 29.79 inches Hg (1008.9 mb)
[Sea-level pressure: 1008.9 mb]
Winds: from the SSE (160 degrees) at 15 MPH (13 knots; 6.7 m/s)
gusting to 26 MPH (23 knots; 11.8 m/s)
Visibility: 10 or more miles (16+ km)
Ceiling: 2300 feet AGL
Clouds: overcast cloud deck at 2300 feet AGL
Weather: no significant weather observed at this time

METAR text: KTUL 221253Z 17017G24KT 10SM -DZ OVC020 12/08 A2980 RMK AO2 PK WND 17033/1155 DZB21 SLP089 PCPN VRY LGT P0000 T01170078
Conditions at: KTUL (TULSA , OK, US) observed 1253 UTC 22 January 2019
Temperature: 11.7°C (53°F)
Dewpoint: 7.8°C (46°F) [RH = 77%]
Pressure (altimeter): 29.80 inches Hg (1009.2 mb)
[Sea-level pressure: 1008.9 mb]
Winds: from the S (170 degrees) at 20 MPH (17 knots; 8.7 m/s)
gusting to 28 MPH (24 knots; 12.3 m/s)
Visibility: 10 or more miles (16+ km)
Ceiling: 2000 feet AGL
Clouds: overcast cloud deck at 2000 feet AGL
Weather: -DZ  (light drizzle)

METAR text: KTUL 221153Z 18021G31KT 10SM OVC020 12/07 A2978 RMK AO2 PK WND 16031/1147 SLP085 T01170072 10122 20083 53001
Conditions at: KTUL (TULSA , OK, US) observed 1153 UTC 22 January 2019
Temperature: 11.7°C (53°F)
Dewpoint: 7.2°C (45°F) [RH = 74%]
Pressure (altimeter): 29.78 inches Hg (1008.5 mb)
[Sea-level pressure: 1008.5 mb]
Winds: from the S (180 degrees) at 24 MPH (21 knots; 10.8 m/s)
gusting to 36 MPH (31 knots; 15.9 m/s)
Visibility: 10 or more miles (16+ km)
Ceiling: 2000 feet AGL
Clouds: overcast cloud deck at 2000 feet AGL
Weather: no significant weather observed at this time

METAR text: KTUL 221053Z 17020G28KT 10SM OVC022 12/07 A2977 RMK AO2 PK WND 17029/1026 SLP078 T01220072
Conditions at: KTUL (TULSA , OK, US) observed 1053 UTC 22 January 2019
Temperature: 12.2°C (54°F)
Dewpoint: 7.2°C (45°F) [RH = 71%]
Pressure (altimeter): 29.77 inches Hg (1008.2 mb)
[Sea-level pressure: 1007.8 mb]
Winds: from the S (170 degrees) at 23 MPH (20 knots; 10.3 m/s)
gusting to 32 MPH (28 knots; 14.4 m/s)
Visibility: 10 or more miles (16+ km)
Ceiling: 2200 feet AGL
Clouds: overcast cloud deck at 2200 feet AGL
Weather: no significant weather observed at this time

METAR text: KTUL 220953Z 17019KT 10SM OVC024 12/07 A2976 RMK AO2 PK WND 18028/0907 SLP075 T01170072
Conditions at: KTUL (TULSA , OK, US) observed 0953 UTC 22 January 2019
Temperature: 11.7°C (53°F)
Dewpoint: 7.2°C (45°F) [RH = 74%]
Pressure (altimeter): 29.76 inches Hg (1007.9 mb)
[Sea-level pressure: 1007.5 mb]
Winds: from the S (170 degrees) at 22 MPH (19 knots; 9.8 m/s)
Visibility: 10 or more miles (16+ km)
Ceiling: 2400 feet AGL
Clouds: overcast cloud deck at 2400 feet AGL
Weather: no significant weather observed at this time

METAR text: KTUL 220853Z 17016G21KT 10SM OVC024 11/06 A2978 RMK AO2 SLP083 T01110061 58007
Conditions at: KTUL (TULSA , OK, US) observed 0853 UTC 22 January 2019
Temperature: 11.1°C (52°F)
Dewpoint: 6.1°C (43°F) [RH = 71%]
Pressure (altimeter): 29.78 inches Hg (1008.5 mb)
[Sea-level pressure: 1008.3 mb]
Winds: from the S (170 degrees) at 18 MPH (16 knots; 8.2 m/s)
gusting to 24 MPH (21 knots; 10.8 m/s)
Visibility: 10 or more miles (16+ km)
Ceiling: 2400 feet AGL
Clouds: overcast cloud deck at 2400 feet AGL
Weather: no significant weather observed at this time

METAR text: KTUL 220753Z 17015G21KT 10SM OVC025 10/04 A2980 RMK AO2 PK WND 17033/0706 SLP089 T01000044
Conditions at: KTUL (TULSA , OK, US) observed 0753 UTC 22 January 2019
Temperature: 10.0°C (50°F)
Dewpoint: 4.4°C (40°F) [RH = 68%]
Pressure (altimeter): 29.80 inches Hg (1009.2 mb)
[Sea-level pressure: 1008.9 mb]
Winds: from the S (170 degrees) at 17 MPH (15 knots; 7.7 m/s)
gusting to 24 MPH (21 knots; 10.8 m/s)
Visibility: 10 or more miles (16+ km)
Ceiling: 2500 feet AGL
Clouds: overcast cloud deck at 2500 feet AGL
Weather: no significant weather observed at this time

METAR text: KTUL 220653Z 16019G27KT 10SM OVC028 09/03 A2979 RMK AO2 PK WND 17027/0651 SLP087 T00940033
Conditions at: KTUL (TULSA , OK, US) observed 0653 UTC 22 January 2019
Temperature: 9.4°C (49°F)
Dewpoint: 3.3°C (38°F) [RH = 66%]
Pressure (altimeter): 29.79 inches Hg (1008.9 mb)
[Sea-level pressure: 1008.7 mb]
Winds: from the SSE (160 degrees) at 22 MPH (19 knots; 9.8 m/s)
gusting to 31 MPH (27 knots; 13.9 m/s)
Visibility: 10 or more miles (16+ km)
Ceiling: 2800 feet AGL
Clouds: overcast cloud deck at 2800 feet AGL
Weather: no significant weather observed at this time

METAR text: KTUL 220618Z 16015G23KT 10SM OVC029 08/02 A2981 RMK AO2 T00830022
Conditions at: KTUL (TULSA , OK, US) observed 0618 UTC 22 January 2019
Temperature: 8.3°C (47°F)
Dewpoint: 2.2°C (36°F) [RH = 65%]
Pressure (altimeter): 29.81 inches Hg (1009.6 mb)
Winds: from the SSE (160 degrees) at 17 MPH (15 knots; 7.7 m/s)
gusting to 26 MPH (23 knots; 11.8 m/s)
Visibility: 10 or more miles (16+ km)
Ceiling: 2900 feet AGL
Clouds: overcast cloud deck at 2900 feet AGL
Weather: no significant weather observed at this time

METAR text: KTUL 220553Z 16014G25KT 10SM OVC030 08/01 A2980 RMK AO2 PK WND 15028/0512 SLP093 T00830011 10083 20067 401111017 56010
Conditions at: KTUL (TULSA , OK, US) observed 0553 UTC 22 January 2019
Temperature: 8.3°C (47°F)
Dewpoint: 1.1°C (34°F) [RH = 60%]
Pressure (altimeter): 29.80 inches Hg (1009.2 mb)
[Sea-level pressure: 1009.3 mb]
Winds: from the SSE (160 degrees) at 16 MPH (14 knots; 7.2 m/s)
gusting to 29 MPH (25 knots; 12.9 m/s)
Visibility: 10 or more miles (16+ km)
Ceiling: 3000 feet AGL
Clouds: overcast cloud deck at 3000 feet AGL
Weather: no significant weather observed at this time

METAR text: KTUL 220453Z 16016G26KT 10SM OVC032 07/M01 A2981 RMK AO2 PK WND 16027/0423 SLP094 T00721006
Conditions at: KTUL (TULSA , OK, US) observed 0453 UTC 22 January 2019
Temperature: 7.2°C (45°F)
Dewpoint: -0.6°C (31°F) [RH = 58%]
Pressure (altimeter): 29.81 inches Hg (1009.6 mb)
[Sea-level pressure: 1009.4 mb]
Winds: from the SSE (160 degrees) at 18 MPH (16 knots; 8.2 m/s)
gusting to 30 MPH (26 knots; 13.4 m/s)
Visibility: 10 or more miles (16+ km)
Ceiling: 3200 feet AGL
Clouds: overcast cloud deck at 3200 feet AGL
Weather: no significant weather observed at this time

METAR text: KTUL 220353Z 15017G25KT 10SM BKN036 BKN250 07/M02 A2982 RMK AO2 PK WND 16028/0258 SLP101 T00671022
Conditions at: KTUL (TULSA , OK, US) observed 0353 UTC 22 January 2019
Temperature: 6.7°C (44°F)
Dewpoint: -2.2°C (28°F) [RH = 53%]
Pressure (altimeter): 29.82 inches Hg (1009.9 mb)
[Sea-level pressure: 1010.1 mb]
Winds: from the SSE (150 degrees) at 20 MPH (17 knots; 8.7 m/s)
gusting to 29 MPH (25 knots; 12.9 m/s)
Visibility: 10 or more miles (16+ km)
Ceiling: 3600 feet AGL
Clouds: broken clouds at 3600 feet AGL
broken clouds at 25000 feet AGL
Weather: no significant weather observed at this time

METAR text: KTUL 220253Z 16014G25KT 10SM BKN250 07/M03 A2983 RMK AO2 SLP105 T00671028 53002
Conditions at: KTUL (TULSA , OK, US) observed 0253 UTC 22 January 2019
Temperature: 6.7°C (44°F)
Dewpoint: -2.8°C (27°F) [RH = 51%]
Pressure (altimeter): 29.83 inches Hg (1010.2 mb)
[Sea-level pressure: 1010.5 mb]
Winds: from the SSE (160 degrees) at 16 MPH (14 knots; 7.2 m/s)
gusting to 29 MPH (25 knots; 12.9 m/s)
Visibility: 10 or more miles (16+ km)
Ceiling: 25000 feet AGL
Clouds: broken clouds at 25000 feet AGL
Weather: no significant weather observed at this time

METAR text: KTUL 220153Z 17018G25KT 10SM BKN250 08/M03 A2984 RMK AO2 PK WND 15031/0128 SLP106 T00781028
Conditions at: KTUL (TULSA , OK, US) observed 0153 UTC 22 January 2019
Temperature: 7.8°C (46°F)
Dewpoint: -2.8°C (27°F) [RH = 47%]
Pressure (altimeter): 29.84 inches Hg (1010.6 mb)
[Sea-level pressure: 1010.6 mb]
Winds: from the S (170 degrees) at 21 MPH (18 knots; 9.3 m/s)
gusting to 29 MPH (25 knots; 12.9 m/s)
Visibility: 10 or more miles (16+ km)
Ceiling: 25000 feet AGL
Clouds: broken clouds at 25000 feet AGL
Weather: no significant weather observed at this time

Forecast for: KTUL (TULSA , OK, US)
Text: KTUL 231329Z 2313/2412 34011KT P6SM BKN025
Forecast period: 1300 to 2000 UTC 23 January 2019
Forecast type: FROM: standard forecast or significant change
Winds: from the NNW (340 degrees) at 13 MPH (11 knots; 5.7 m/s)
Visibility: 6 or more miles 10+ km)
Ceiling: 2500 feet AGL
Clouds: broken clouds at 2500 feet AGL
Weather: no significant weather forecast for this period
Text: TEMPO 2313/2316 SCT022
Forecast period: 1300 to 1600 UTC 23 January 2019
Forecast type: TEMPORARY: The following changes expected for less than half the time period
Visibility: missing
Ceiling: at least 12,000 feet AGL
Clouds: scattered clouds at 2200 feet AGL
Weather: no significant weather forecast for this period
Text: FM232000 30010KT P6SM SCT030
Forecast period: 2000 UTC 23 January 2019 to 0000 UTC 24 January 2019
Forecast type: FROM: standard forecast or significant change
Winds: from the WNW (300 degrees) at 12 MPH (10 knots; 5.1 m/s)
Visibility: 6 or more miles 10+ km)
Ceiling: at least 12,000 feet AGL
Clouds: scattered clouds at 3000 feet AGL
Weather: no significant weather forecast for this period
Text: FM240000 20005KT P6SM SCT250
Forecast period: 0000 to 1200 UTC 24 January 2019
Forecast type: FROM: standard forecast or significant change
Winds: from the SSW (200 degrees) at 6 MPH (5 knots; 2.6 m/s)
Visibility: 6 or more miles 10+ km)
Ceiling: at least 12,000 feet AGL
Clouds: scattered clouds at 25000 feet AGL
Weather: no significant weather forecast for this period